Time;durP1;ratioP1;P1;durP2;ratioP2;P2;SDS_P1;SDS_P2;PMS_P1;PMS_P2;Temp;Humidity;BMP_temperature;BMP_pressure;BME280_temperature;BME280_humidity;BME280_pressure;Samples;Min_cycle;Max_cycle;Signal;HPM_P1;HPM_P2
2021/01/28 00:00:01;;;;;;;3.00;0.17;;;;;;;2.81;54.69;100823.97;5046137;28;20028;-72
2021/01/28 00:02:29;;;;;;;4.25;0.40;;;;;;;2.65;54.91;100831.00;5043943;28;20037;-72
2021/01/28 00:04:55;;;;;;;2.33;0.50;;;;;;;2.56;55.05;100831.06;5037630;28;20544;-72
2021/01/28 00:07:20;;;;;;;2.83;0.70;;;;;;;2.59;54.74;100833.59;5045598;28;20033;-72
2021/01/28 00:09:45;;;;;;;4.03;0.20;;;;;;;2.61;54.60;100824.13;5041814;28;20465;-72
2021/01/28 00:12:11;;;;;;;2.40;0.63;;;;;;;2.61;54.45;100824.13;5045193;28;20490;-72
2021/01/28 00:14:37;;;;;;;7.50;0.50;;;;;;;2.59;54.32;100825.03;5024653;28;20029;-74
2021/01/28 00:17:02;;;;;;;1.77;0.30;;;;;;;2.52;54.40;100830.22;5043429;28;20030;-72
2021/01/28 00:19:28;;;;;;;0.70;0.20;;;;;;;2.49;54.37;100826.81;5047899;28;20482;-72
2021/01/28 00:21:53;;;;;;;2.40;0.35;;;;;;;2.34;54.86;100822.63;5041593;28;20482;-72
2021/01/28 00:24:18;;;;;;;2.70;0.30;;;;;;;2.40;54.30;100829.44;5045990;28;20029;-72
2021/01/28 00:26:44;;;;;;;3.53;0.20;;;;;;;2.33;54.68;100829.50;5047313;28;20040;-71
2021/01/28 00:29:09;;;;;;;1.08;0.20;;;;;;;2.39;54.15;100818.28;5022691;28;20084;-71
2021/01/28 00:31:35;;;;;;;2.58;1.05;;;;;;;2.31;54.23;100814.88;5030009;28;20091;-72
2021/01/28 00:34:00;;;;;;;1.25;0.30;;;;;;;2.29;53.99;100807.16;5049818;28;20040;-71
2021/01/28 00:36:26;;;;;;;2.03;0.40;;;;;;;2.21;54.17;100814.09;5041461;28;20032;-72
2021/01/28 00:38:52;;;;;;;7.47;0.47;;;;;;;2.15;54.04;100814.13;5017672;28;20676;-72
2021/01/28 00:41:17;;;;;;;1.23;0.28;;;;;;;2.15;54.01;100801.22;5040512;28;20029;-72
2021/01/28 00:43:43;;;;;;;1.42;0.40;;;;;;;2.07;53.98;100801.28;5052591;28;20037;-72
2021/01/28 00:46:09;;;;;;;1.77;0.40;;;;;;;1.90;54.27;100809.09;5042099;28;20055;-72
2021/01/28 00:48:34;;;;;;;1.00;0.30;;;;;;;1.98;53.91;100800.50;5047717;28;20056;-72
2021/01/28 00:51:02;;;;;;;1.85;0.15;;;;;;;1.97;53.64;100809.06;5046045;28;20129;-72
2021/01/28 00:53:27;;;;;;;3.80;0.20;;;;;;;1.88;53.67;100800.50;5047061;28;20055;-72
2021/01/28 00:55:53;;;;;;;0.20;0.13;;;;;;;1.83;53.71;100797.13;5049615;28;20036;-72
2021/01/28 00:58:39;;;;;;;0.50;0.10;;;;;;;1.75;53.36;100809.16;5061587;28;20052;-72
2021/01/28 01:01:06;;;;;;;1.98;0.13;;;;;;;1.72;53.47;100801.47;5062141;28;20044;-73
2021/01/28 01:03:31;;;;;;;1.45;0.28;;;;;;;1.66;53.47;100796.31;5065688;28;20033;-72
2021/01/28 01:05:57;;;;;;;1.95;0.20;;;;;;;1.58;53.13;100801.53;5065125;28;20355;-73
2021/01/28 01:08:29;;;;;;;1.13;0.30;;;;;;;1.46;53.25;100802.44;5060426;28;20029;-72
2021/01/28 01:11:06;;;;;;;2.00;0.40;;;;;;;1.36;53.49;100808.44;5056702;28;20036;-72
2021/01/28 01:13:35;;;;;;;0.60;0.20;;;;;;;1.27;53.48;100806.72;5050142;28;20024;-72
2021/01/28 01:16:23;;;;;;;0.70;0.20;;;;;;;1.25;53.88;100802.44;5048169;28;20041;-72
2021/01/28 01:18:56;;;;;;;1.20;0.20;;;;;;;1.28;53.79;100802.44;5021146;28;20033;-72
2021/01/28 01:21:29;;;;;;;4.78;0.57;;;;;;;1.28;54.20;100789.56;5046139;28;20033;-71
2021/01/28 01:24:11;;;;;;;2.75;0.57;;;;;;;1.30;53.84;100786.13;5024080;28;20103;-71
2021/01/28 01:26:37;;;;;;;1.95;0.30;;;;;;;1.27;53.65;100785.28;5028425;28;20045;-73
2021/01/28 01:29:03;;;;;;;1.00;0.20;;;;;;;1.26;53.29;100789.59;5027139;28;20057;-72
2021/01/28 01:31:46;;;;;;;0.35;0.10;;;;;;;1.17;53.13;100783.56;5040779;28;20120;-71
2021/01/28 01:34:12;;;;;;;1.75;0.40;;;;;;;1.10;53.46;100786.19;5031258;28;20124;-72
2021/01/28 01:36:37;;;;;;;1.05;0.50;;;;;;;1.19;53.37;100787.84;5021915;28;20035;-72
2021/01/28 01:39:03;;;;;;;0.90;0.40;;;;;;;1.02;53.10;100784.50;5048687;28;20090;-72
2021/01/28 01:41:40;;;;;;;2.78;0.50;;;;;;;1.02;53.33;100785.34;5031380;28;20503;-72
2021/01/28 01:44:08;;;;;;;0.55;0.20;;;;;;;0.88;53.23;100781.91;5046198;28;20032;-72
2021/01/28 01:46:39;;;;;;;2.10;0.30;;;;;;;0.87;53.16;100787.94;5040639;28;20024;-72
2021/01/28 01:49:16;;;;;;;1.85;0.20;;;;;;;0.85;53.16;100782.78;5043722;28;20034;-72
2021/01/28 01:51:43;;;;;;;3.42;0.30;;;;;;;0.78;53.24;100782.81;5044584;28;20043;-72
2021/01/28 01:54:31;;;;;;;1.13;0.40;;;;;;;0.81;53.08;100781.06;5042098;28;20033;-72
2021/01/28 01:57:01;;;;;;;1.48;0.35;;;;;;;0.81;53.22;100769.91;5044070;28;20034;-72
2021/01/28 01:59:35;;;;;;;2.05;0.20;;;;;;;0.75;53.01;100775.06;5041269;28;20064;-72
2021/01/28 02:02:24;;;;;;;0.93;0.40;;;;;;;0.71;53.01;100775.94;5043875;28;20151;-72
2021/01/28 02:05:17;;;;;;;1.73;0.22;;;;;;;0.67;52.83;100775.09;5046625;28;20115;-72
2021/01/28 02:08:03;;;;;;;3.20;0.20;;;;;;;0.64;53.00;100768.22;5046259;28;20052;-72
2021/01/28 02:10:51;;;;;;;0.75;0.30;;;;;;;0.56;52.61;100759.66;5045763;28;20047;-73
2021/01/28 02:13:55;;;;;;;2.70;0.52;;;;;;;0.52;53.11;100762.22;5041695;28;21238;-72
2021/01/28 02:16:48;;;;;;;1.58;0.40;;;;;;;0.48;53.33;100753.66;5038182;28;20029;-72
2021/01/28 02:19:52;;;;;;;2.45;0.45;;;;;;;0.43;53.01;100755.34;5031637;28;20048;-72
2021/01/28 02:22:27;;;;;;;0.90;0.30;;;;;;;0.45;52.88;100751.06;5036677;28;20053;-72
2021/01/28 02:25:23;;;;;;;0.82;0.28;;;;;;;0.37;52.57;100753.66;5045361;28;20041;-73
2021/01/28 02:27:51;;;;;;;0.90;0.20;;;;;;;0.15;52.99;100749.38;5027783;28;20397;-72
2021/01/28 02:30:29;;;;;;;1.70;0.20;;;;;;;0.04;52.98;100751.91;5044022;28;20486;-71
2021/01/28 02:32:56;;;;;;;1.75;0.20;;;;;;;-0.02;53.04;100750.19;5045961;28;20516;-71
2021/01/28 02:35:49;;;;;;;0.90;0.22;;;;;;;-0.13;53.50;100745.00;5037889;28;20684;-73
2021/01/28 02:38:15;;;;;;;1.77;0.50;;;;;;;-0.14;53.60;100745.88;5026554;28;20033;-73
2021/01/28 02:40:45;;;;;;;1.88;0.65;;;;;;;-0.04;53.39;100743.31;5023706;28;20053;-71
2021/01/28 02:43:20;;;;;;;1.48;0.35;;;;;;;0.02;54.10;100746.75;5045365;28;20041;-71
2021/01/28 02:46:13;;;;;;;3.42;0.55;;;;;;;0.17;54.36;100740.78;5041919;28;20046;-71
2021/01/28 02:49:11;;;;;;;0.85;0.30;;;;;;;0.29;54.15;100739.94;5040200;28;20037;-74
2021/01/28 02:51:46;;;;;;;3.47;0.43;;;;;;;0.31;54.07;100737.38;5043461;28;20125;-73
2021/01/28 02:54:20;;;;;;;2.40;0.50;;;;;;;0.48;54.32;100740.81;5061286;28;20029;-73
2021/01/28 02:56:45;;;;;;;0.85;0.30;;;;;;;0.56;54.39;100739.06;5043228;28;20089;-72
2021/01/28 02:59:11;;;;;;;4.13;0.43;;;;;;;0.63;53.96;100740.78;5046449;28;20071;-72
2021/01/28 03:01:42;;;;;;;0.93;0.47;;;;;;;0.59;53.51;100744.22;5043370;28;20044;-73
2021/01/28 03:04:10;;;;;;;1.00;0.38;;;;;;;0.52;53.34;100751.94;5028839;28;20028;-73
2021/01/28 03:06:42;;;;;;;3.25;0.32;;;;;;;0.38;53.16;100749.38;5037848;28;20024;-72
2021/01/28 03:09:08;;;;;;;0.68;0.25;;;;;;;0.34;53.24;100747.66;5036429;28;20045;-73
2021/01/28 03:11:52;;;;;;;1.98;0.60;;;;;;;0.33;53.54;100749.38;5045243;28;20020;-73
2021/01/28 03:14:37;;;;;;;2.00;0.40;;;;;;;0.38;53.80;100745.06;5045285;28;20510;-72
2021/01/28 03:17:05;;;;;;;3.20;0.30;;;;;;;0.38;53.90;100744.22;5042438;28;21157;-74
2021/01/28 03:19:36;;;;;;;2.13;0.73;;;;;;;0.38;53.98;100736.50;5041201;28;20040;-73
2021/01/28 03:22:14;;;;;;;3.45;0.50;;;;;;;0.52;54.05;100737.34;5041905;28;20116;-73
2021/01/28 03:24:47;;;;;;;2.00;0.47;;;;;;;0.55;53.57;100742.50;5027820;28;20143;-73
2021/01/28 03:27:18;;;;;;;1.02;0.30;;;;;;;0.55;53.78;100742.50;5044275;28;20031;-73
2021/01/28 03:29:48;;;;;;;2.33;0.22;;;;;;;0.51;53.42;100740.81;5041775;28;20465;-73
2021/01/28 03:32:14;;;;;;;1.23;0.50;;;;;;;0.44;53.69;100728.81;5038461;28;20113;-72
2021/01/28 03:34:40;;;;;;;1.50;0.40;;;;;;;0.54;53.60;100735.66;5038333;28;20029;-73
2021/01/28 03:37:06;;;;;;;1.00;0.40;;;;;;;0.65;53.62;100744.22;5027042;28;20438;-72
2021/01/28 03:39:42;;;;;;;0.95;0.28;;;;;;;0.66;53.69;100750.22;5031914;28;20114;-73
2021/01/28 03:42:08;;;;;;;4.97;0.43;;;;;;;0.61;53.98;100742.53;5027468;28;20033;-73
2021/01/28 03:44:35;;;;;;;1.17;0.35;;;;;;;0.69;53.63;100750.22;5040057;28;20054;-72
2021/01/28 03:47:01;;;;;;;2.25;0.40;;;;;;;0.71;53.95;100742.50;5026735;28;20542;-73
2021/01/28 03:49:36;;;;;;;1.40;0.40;;;;;;;0.71;53.69;100743.34;5029670;28;20506;-71
2021/01/28 03:52:20;;;;;;;1.05;0.47;;;;;;;0.66;54.18;100733.06;5045742;28;20115;-72
2021/01/28 03:55:04;;;;;;;2.13;0.73;;;;;;;0.65;53.76;100723.63;5042657;28;20057;-72
2021/01/28 03:57:36;;;;;;;1.73;0.40;;;;;;;0.54;53.84;100715.06;5044721;28;20056;-72
2021/01/28 04:00:09;;;;;;;2.00;0.47;;;;;;;0.51;54.01;100727.09;5041190;28;20397;-71
2021/01/28 04:02:43;;;;;;;1.67;0.55;;;;;;;0.49;53.73;100722.78;5031329;28;20036;-72
2021/01/28 04:05:44;;;;;;;1.75;0.47;;;;;;;0.34;53.74;100716.81;5035965;28;20506;-72
2021/01/28 04:08:30;;;;;;;2.63;0.60;;;;;;;0.27;53.81;100716.78;5041286;28;20044;-71
2021/01/28 04:11:14;;;;;;;2.28;0.80;;;;;;;0.17;53.44;100720.22;5047568;28;20461;-71
2021/01/28 04:13:39;;;;;;;0.68;0.28;;;;;;;0.08;53.90;100722.78;5026324;28;20041;-71
2021/01/28 04:16:07;;;;;;;1.25;0.30;;;;;;;0.15;53.70;100708.25;5042159;28;20021;-71
2021/01/28 04:18:34;;;;;;;1.85;0.50;;;;;;;0.13;53.62;100722.81;5041857;28;20033;-72
2021/01/28 04:21:20;;;;;;;2.25;0.70;;;;;;;0.15;54.01;100713.38;5047590;28;20037;-71
2021/01/28 04:23:47;;;;;;;1.40;0.55;;;;;;;0.21;54.01;100715.94;5043337;28;20025;-72
2021/01/28 04:26:21;;;;;;;1.08;0.30;;;;;;;0.24;53.62;100708.25;5033385;28;20029;-72
2021/01/28 04:28:53;;;;;;;1.58;0.35;;;;;;;0.34;53.76;100706.50;5030414;28;20032;-72
2021/01/28 04:31:34;;;;;;;1.88;0.57;;;;;;;0.27;53.71;100703.94;5046397;28;20037;-72
2021/01/28 04:34:05;;;;;;;2.38;0.40;;;;;;;0.31;53.37;100703.97;5025216;28;20033;-71
2021/01/28 04:36:31;;;;;;;0.75;0.25;;;;;;;0.21;53.50;100696.25;5046535;28;20029;-71
2021/01/28 04:39:16;;;;;;;0.77;0.30;;;;;;;0.14;53.43;100689.38;5047093;28;20051;-71
2021/01/28 04:41:43;;;;;;;1.38;0.50;;;;;;;0.06;53.50;100691.94;5030032;28;20033;-71
2021/01/28 04:44:11;;;;;;;2.63;0.47;;;;;;;0.01;53.53;100683.38;5047491;28;20124;-73
2021/01/28 04:47:12;;;;;;;1.20;0.60;;;;;;;-0.01;53.63;100679.09;5036173;28;21086;-71
2021/01/28 04:49:38;;;;;;;1.65;0.38;;;;;;;0.08;53.95;100679.09;5048017;28;20043;-71
2021/01/28 04:52:25;;;;;;;1.02;0.40;;;;;;;0.10;53.92;100667.13;5047433;28;20095;-72
2021/01/28 04:55:14;;;;;;;1.05;0.30;;;;;;;0.06;53.47;100667.97;5045251;28;20499;-71
2021/01/28 04:57:47;;;;;;;1.75;0.68;;;;;;;0.11;53.47;100668.81;5041349;28;20083;-71
2021/01/28 05:00:16;;;;;;;1.08;0.60;;;;;;;0.19;53.59;100667.13;5040046;28;20033;-71
2021/01/28 05:03:29;;;;;;;1.85;0.25;;;;;;;0.10;53.84;100673.94;5029784;28;20033;-71
2021/01/28 05:06:17;;;;;;;1.30;0.68;;;;;;;0.14;53.51;100662.81;5044343;28;20048;-72
2021/01/28 05:08:58;;;;;;;1.83;0.47;;;;;;;0.16;53.64;100655.97;5045868;28;20158;-71
2021/01/28 05:11:51;;;;;;;1.88;0.35;;;;;;;0.15;53.58;100654.25;5045663;28;20471;-72
2021/01/28 05:15:09;;;;;;;;;;;;;;;0.20;53.70;100655.97;5029497;28;20061;-72
2021/01/28 05:17:58;;;;;;;1.27;0.70;;;;;;;0.30;53.85;100655.94;5047746;28;19964;-71
2021/01/28 05:20:45;;;;;;;3.33;0.68;;;;;;;0.44;53.72;100656.81;5047002;28;20055;-72
2021/01/28 05:23:34;;;;;;;1.33;0.50;;;;;;;0.32;53.63;100646.53;5044447;28;20032;-72
2021/01/28 05:26:21;;;;;;;2.97;0.80;;;;;;;0.47;53.66;100643.94;5042899;28;20044;-72
2021/01/28 05:29:30;;;;;;;1.13;0.50;;;;;;;0.40;53.53;100647.38;5044652;28;20044;-71
2021/01/28 05:32:13;;;;;;;3.58;0.60;;;;;;;0.37;53.75;100645.69;5042607;28;20029;-71
2021/01/28 05:35:12;;;;;;;1.45;0.45;;;;;;;0.41;53.72;100646.50;5047379;28;20144;-72
2021/01/28 05:38:11;;;;;;;1.98;1.00;;;;;;;0.35;53.68;100644.81;5045077;28;20060;-71
2021/01/28 05:40:53;;;;;;;2.25;0.45;;;;;;;0.43;53.99;100637.06;5044258;28;20130;-72
2021/01/28 05:43:23;;;;;;;6.13;1.08;;;;;;;0.47;54.16;100636.22;5043699;28;20994;-72
2021/01/28 05:45:50;;;;;;;5.60;0.50;;;;;;;0.51;53.93;100621.66;5040154;28;20033;-71
2021/01/28 05:48:34;;;;;;;6.25;0.93;;;;;;;0.53;53.89;100614.78;5042915;28;20039;-72
2021/01/28 05:51:21;;;;;;;3.10;1.17;;;;;;;0.60;53.80;100611.34;5045737;28;20032;-72
2021/01/28 05:54:01;;;;;;;4.45;1.13;;;;;;;0.68;53.92;100610.47;5042983;28;20029;-71
2021/01/28 05:56:35;;;;;;;3.45;0.60;;;;;;;0.82;54.26;100606.97;5042591;28;20112;-71
2021/01/28 05:59:20;;;;;;;1.83;0.70;;;;;;;0.85;54.44;100606.97;5028013;28;20036;-72
2021/01/28 06:02:01;;;;;;;12.15;0.93;;;;;;;0.99;54.68;100604.31;5044181;28;20025;-71
2021/01/28 06:05:05;;;;;;;1.90;0.82;;;;;;;1.16;54.56;100599.94;5046566;28;20040;-72
2021/01/28 06:08:23;;;;;;;0.77;0.30;;;;;;;1.23;54.06;100603.34;5044499;28;20098;-72
2021/01/28 06:10:55;;;;;;;4.55;1.02;;;;;;;1.24;54.12;100592.19;5027021;28;20504;-72
2021/01/28 06:14:07;;;;;;;2.92;0.43;;;;;;;1.17;53.84;100587.91;5027808;28;20678;-71
2021/01/28 06:17:11;;;;;;;3.42;0.63;;;;;;;1.15;54.17;100581.94;5046386;28;20802;-71
2021/01/28 06:20:32;;;;;;;4.75;0.90;;;;;;;1.23;54.46;100583.59;5043154;28;20037;-71
2021/01/28 06:23:06;;;;;;;10.82;0.82;;;;;;;1.29;54.32;100585.28;5024050;28;20557;-71
2021/01/28 06:26:24;;;;;;;4.57;1.38;;;;;;;1.26;53.95;100575.00;5048055;28;20093;-71
2021/01/28 06:29:11;;;;;;;5.95;1.10;;;;;;;1.24;53.63;100576.75;5042660;28;20041;-73
2021/01/28 06:31:50;;;;;;;2.70;1.08;;;;;;;1.20;53.72;100577.63;5046759;28;20107;-72
2021/01/28 06:34:55;;;;;;;4.47;1.00;;;;;;;1.21;53.84;100581.91;5044605;28;20047;-72
2021/01/28 06:38:19;;;;;;;4.10;1.40;;;;;;;1.20;53.33;100582.78;5038966;28;20083;-72
2021/01/28 06:41:09;;;;;;;4.13;0.60;;;;;;;1.04;53.77;100574.28;5038277;28;20044;-72
2021/01/28 06:44:28;;;;;;;3.50;0.73;;;;;;;1.13;53.70;100570.78;5040794;28;20047;-72
2021/01/28 06:47:24;;;;;;;4.90;1.08;;;;;;;1.03;53.47;100582.84;5026395;28;20131;-71
2021/01/28 06:50:35;;;;;;;7.20;1.30;;;;;;;0.86;53.33;100578.66;5034713;28;20037;-72
2021/01/28 06:53:20;;;;;;;4.50;1.38;;;;;;;0.83;53.85;100552.06;5038676;28;20020;-72
2021/01/28 06:56:33;;;;;;;10.52;2.15;;;;;;;0.74;53.78;100542.69;5044478;28;20072;-73
2021/01/28 06:59:44;;;;;;;;;;;;;;;0.74;54.14;100552.13;5060495;28;20203;-71
2021/01/28 07:02:44;;;;;;;8.23;2.70;;;;;;;0.75;54.08;100571.81;5028092;28;19952;-72
2021/01/28 07:05:35;;;;;;;4.80;3.10;;;;;;;0.84;53.83;100564.09;5042737;28;20108;-72
2021/01/28 07:08:11;;;;;;;12.48;3.33;;;;;;;0.87;53.56;100556.34;5029101;28;20100;-72
2021/01/28 07:10:54;;;;;;;11.88;2.53;;;;;;;0.74;54.25;100552.13;5033648;28;20137;-72
2021/01/28 07:13:40;;;;;;;4.80;1.80;;;;;;;0.73;54.25;100550.41;5041300;28;20115;-74
2021/01/28 07:16:50;;;;;;;7.38;2.50;;;;;;;0.60;54.38;100555.59;5045931;28;20443;-73
2021/01/28 07:19:20;;;;;;;6.50;2.70;;;;;;;0.68;53.96;100569.28;5019996;28;20040;-74
2021/01/28 07:21:49;;;;;;;6.47;1.98;;;;;;;0.72;54.10;100574.41;5025935;28;20033;-71
2021/01/28 07:24:24;;;;;;;8.48;2.08;;;;;;;0.76;53.93;100564.09;5042059;28;20032;-71
2021/01/28 07:26:52;;;;;;;4.22;2.30;;;;;;;0.73;53.81;100551.28;5039572;28;20119;-72
2021/01/28 07:29:30;;;;;;;4.60;0.82;;;;;;;0.80;53.72;100549.53;5028214;28;20429;-72
2021/01/28 07:32:01;;;;;;;3.95;1.45;;;;;;;0.79;53.44;100540.06;5042958;28;20119;-73
2021/01/28 07:34:38;;;;;;;3.45;2.00;;;;;;;0.80;53.39;100536.66;5045324;28;20021;-72
2021/01/28 07:37:17;;;;;;;7.07;3.95;;;;;;;0.77;53.51;100531.50;5041931;28;20076;-72
2021/01/28 07:40:04;;;;;;;10.18;3.97;;;;;;;0.77;53.20;100531.50;4995393;28;20041;-72
2021/01/28 07:42:43;;;;;;;8.25;3.10;;;;;;;0.78;53.17;100534.09;5043602;28;20064;-72
2021/01/28 07:45:36;;;;;;;5.87;1.70;;;;;;;0.87;53.01;100528.03;5043708;28;20102;-72
2021/01/28 07:48:28;;;;;;;2.25;1.58;;;;;;;0.74;52.81;100526.38;5045691;28;20637;-72
2021/01/28 07:51:27;;;;;;;4.43;1.42;;;;;;;0.84;52.74;100533.22;5046149;28;20065;-72
2021/01/28 07:53:53;;;;;;;3.90;1.35;;;;;;;0.84;52.48;100534.06;5043332;28;20981;-72
2021/01/28 07:56:40;;;;;;;7.22;1.65;;;;;;;0.84;52.42;100535.78;5044594;28;20025;-72
2021/01/28 07:59:12;;;;;;;7.50;1.90;;;;;;;0.61;52.96;100534.19;5041262;28;20037;-72
2021/01/28 08:01:41;;;;;;;3.47;1.10;;;;;;;0.47;53.01;100528.22;5027489;28;20067;-72
2021/01/28 08:04:23;;;;;;;3.47;1.10;;;;;;;0.55;52.98;100526.47;5045108;28;20040;-72
2021/01/28 08:06:49;;;;;;;2.60;0.80;;;;;;;0.52;52.94;100525.63;5044728;28;20074;-72
2021/01/28 08:09:15;;;;;;;9.18;1.00;;;;;;;0.57;52.34;100517.03;5045886;28;20029;-72
2021/01/28 08:11:47;;;;;;;4.35;0.82;;;;;;;0.60;52.05;100504.16;5043352;28;20029;-73
2021/01/28 08:14:14;;;;;;;2.33;0.93;;;;;;;0.60;52.20;100503.31;5056503;28;20029;-72
2021/01/28 08:16:41;;;;;;;3.63;1.52;;;;;;;0.53;52.35;100497.34;5044320;28;20262;-72
2021/01/28 08:19:16;;;;;;;3.40;0.95;;;;;;;0.74;51.65;100500.66;5045818;28;20029;-72
2021/01/28 08:21:41;;;;;;;3.90;1.33;;;;;;;0.77;51.46;100490.34;5033562;28;20546;-73
2021/01/28 08:24:36;;;;;;;11.32;1.30;;;;;;;0.84;51.32;100482.59;5042515;28;20116;-72
2021/01/28 08:27:16;;;;;;;8.10;0.73;;;;;;;0.72;51.50;100481.81;5041881;28;20025;-72
2021/01/28 08:29:42;;;;;;;7.65;1.15;;;;;;;0.68;51.72;100476.69;5056332;28;20394;-72
2021/01/28 08:32:27;;;;;;;2.42;0.88;;;;;;;0.74;51.33;100472.38;5023681;28;20025;-73
2021/01/28 08:35:06;;;;;;;5.00;0.95;;;;;;;0.90;50.64;100476.53;5042578;28;20068;-72
2021/01/28 08:37:34;;;;;;;3.42;0.85;;;;;;;0.96;50.20;100476.50;5047410;28;20029;-72
2021/01/28 08:40:00;;;;;;;3.42;0.90;;;;;;;0.95;50.42;100472.25;5042732;28;20033;-72
2021/01/28 08:42:27;;;;;;;4.65;0.73;;;;;;;1.08;49.72;100475.56;5021857;28;20479;-72
2021/01/28 08:45:18;;;;;;;6.07;1.10;;;;;;;0.97;49.77;100473.09;5030163;28;20032;-72
2021/01/28 08:47:55;;;;;;;1.98;0.60;;;;;;;0.99;49.70;100468.78;5047062;28;20116;-72
2021/01/28 08:50:24;;;;;;;6.32;1.20;;;;;;;0.81;49.45;100471.47;5046376;28;20033;-73
2021/01/28 08:52:53;;;;;;;3.28;1.02;;;;;;;1.01;49.12;100464.47;5045425;28;20024;-72
2021/01/28 08:55:23;;;;;;;3.33;1.52;;;;;;;1.00;49.50;100467.91;5026705;28;20482;-72
2021/01/28 08:58:01;;;;;;;8.35;1.00;;;;;;;1.05;48.99;100466.16;5060167;28;20044;-73
2021/01/28 09:00:27;;;;;;;3.42;1.42;;;;;;;1.20;48.47;100465.19;5043956;28;20040;-73
2021/01/28 09:02:55;;;;;;;3.25;1.17;;;;;;;1.03;48.80;100459.31;5040865;28;20090;-73
2021/01/28 09:05:29;;;;;;;2.20;0.93;;;;;;;1.01;48.70;100459.31;5047629;28;20167;-73
2021/01/28 09:08:01;;;;;;;3.72;1.23;;;;;;;1.14;48.64;100461.81;5055996;28;20041;-73
2021/01/28 09:10:26;;;;;;;3.93;1.23;;;;;;;1.29;48.06;100459.97;5037625;28;20036;-74
2021/01/28 09:12:52;;;;;;;3.10;1.20;;;;;;;1.24;48.17;100458.31;5045274;28;20384;-73
2021/01/28 09:15:22;;;;;;;1.60;0.90;;;;;;;1.27;48.20;100453.13;5040290;28;20524;-73
2021/01/28 09:17:48;;;;;;;4.03;1.10;;;;;;;1.45;47.96;100447.84;5043683;28;20045;-72
2021/01/28 09:20:32;;;;;;;3.80;0.85;;;;;;;1.14;48.11;100448.94;5047237;28;20029;-72
2021/01/28 09:23:14;;;;;;;4.80;1.60;;;;;;;1.18;48.26;100450.63;5044892;28;20113;-73
2021/01/28 09:25:40;;;;;;;2.53;1.30;;;;;;;1.17;48.30;100456.63;5058620;28;20449;-72
2021/01/28 09:28:11;;;;;;;3.63;1.00;;;;;;;1.22;48.04;100457.47;5028078;28;20041;-72
2021/01/28 09:30:41;;;;;;;2.70;1.33;;;;;;;1.28;47.96;100457.41;5038909;28;20765;-73
2021/01/28 09:33:40;;;;;;;3.47;1.20;;;;;;;1.24;47.71;100460.91;5037260;28;20707;-72
2021/01/28 09:36:17;;;;;;;2.33;0.82;;;;;;;1.34;47.57;100467.66;5032871;28;20041;-72
2021/01/28 09:39:03;;;;;;;5.95;1.42;;;;;;;1.45;47.65;100468.44;5043166;28;20075;-73
2021/01/28 09:41:36;;;;;;;5.53;1.98;;;;;;;1.34;47.55;100462.50;5045443;28;20045;-72
2021/01/28 09:44:03;;;;;;;4.55;2.17;;;;;;;1.03;47.88;100473.03;5042721;28;20700;-73
2021/01/28 09:46:30;;;;;;;4.63;1.45;;;;;;;1.23;47.77;100464.31;5046697;28;20056;-73
2021/01/28 09:48:59;;;;;;;4.30;1.52;;;;;;;1.19;48.11;100460.91;5045304;28;20068;-73
2021/01/28 09:51:35;;;;;;;7.95;2.63;;;;;;;0.95;48.78;100466.22;5044324;28;20574;-73
2021/01/28 09:54:13;;;;;;;2.40;0.95;;;;;;;1.04;48.78;100464.47;5042420;28;20078;-73
2021/01/28 09:56:40;;;;;;;5.10;1.55;;;;;;;1.18;48.34;100464.34;5045190;28;20048;-73
2021/01/28 09:59:06;;;;;;;4.95;2.25;;;;;;;1.31;48.41;100454.81;5045496;28;20053;-73
2021/01/28 10:01:32;;;;;;;3.22;1.42;;;;;;;1.27;48.46;100456.56;5043642;28;20506;-72
2021/01/28 10:03:57;;;;;;;4.45;1.63;;;;;;;1.34;48.44;100452.22;5043795;28;20055;-72
2021/01/28 10:06:23;;;;;;;7.65;2.53;;;;;;;1.45;48.34;100452.16;5042879;28;20066;-73
2021/01/28 10:08:48;;;;;;;8.75;2.53;;;;;;;1.34;48.25;100449.63;5042942;28;20035;-72
2021/01/28 10:11:14;;;;;;;5.85;1.90;;;;;;;1.30;48.40;100446.25;5042807;28;20747;-73
2021/01/28 10:13:42;;;;;;;3.50;1.55;;;;;;;1.43;48.39;100452.16;5042573;28;20881;-72
2021/01/28 10:16:07;;;;;;;2.30;1.60;;;;;;;1.29;48.52;100446.25;5038313;28;20095;-73
2021/01/28 10:18:33;;;;;;;8.48;3.47;;;;;;;1.32;47.86;100447.06;5023103;28;20441;-73
2021/01/28 10:20:58;;;;;;;6.70;2.63;;;;;;;1.30;48.15;100447.94;5044737;28;20033;-73
2021/01/28 10:23:24;;;;;;;4.40;1.55;;;;;;;1.03;48.16;100442.16;5044922;28;20032;-73
2021/01/28 10:25:49;;;;;;;5.32;1.90;;;;;;;1.27;47.96;100435.13;5042235;28;20052;-73
2021/01/28 10:28:15;;;;;;;4.80;1.52;;;;;;;1.22;47.53;100431.72;5046121;28;20021;-73
2021/01/28 10:30:40;;;;;;;2.75;1.25;;;;;;;1.48;47.87;100427.25;5044156;28;20128;-72
2021/01/28 10:33:06;;;;;;;5.90;2.00;;;;;;;1.61;47.47;100424.53;5043477;28;20086;-73
2021/01/28 10:35:33;;;;;;;6.13;1.95;;;;;;;1.72;47.09;100422.69;5043658;28;20889;-73
2021/01/28 10:38:00;;;;;;;3.08;1.77;;;;;;;1.51;47.44;100421.19;5036010;28;20034;-73
2021/01/28 10:40:27;;;;;;;3.47;1.45;;;;;;;1.75;47.05;100421.81;5043803;28;20059;-73
2021/01/28 10:42:55;;;;;;;7.85;1.58;;;;;;;1.97;46.38;100412.97;5022495;28;20069;-72
2021/01/28 10:45:24;;;;;;;3.85;1.40;;;;;;;2.00;45.92;100414.63;5041452;28;20029;-73
2021/01/28 10:47:51;;;;;;;3.42;1.25;;;;;;;1.60;45.60;100410.78;5043408;28;20052;-73
2021/01/28 10:50:17;;;;;;;2.72;1.80;;;;;;;1.62;45.78;100413.38;5043609;28;20064;-73
2021/01/28 10:52:42;;;;;;;4.75;1.88;;;;;;;1.51;45.25;100413.47;5040756;28;20067;-73
2021/01/28 10:55:08;;;;;;;3.22;1.98;;;;;;;1.66;45.31;100415.91;5042179;28;20150;-72
2021/01/28 10:57:34;;;;;;;3.90;1.63;;;;;;;1.68;45.44;100415.84;5042959;28;20025;-72
2021/01/28 11:00:00;;;;;;;4.90;1.73;;;;;;;1.58;45.28;100415.13;5042205;28;20107;-72
2021/01/28 11:02:26;;;;;;;3.15;1.17;;;;;;;1.50;45.67;100420.31;5042291;28;20116;-73
2021/01/28 11:04:51;;;;;;;3.17;1.15;;;;;;;1.79;44.80;100424.31;5044753;28;20419;-72
2021/01/28 11:07:17;;;;;;;2.95;1.05;;;;;;;1.81;44.63;100425.16;5044271;28;20116;-72
2021/01/28 11:09:42;;;;;;;4.13;1.20;;;;;;;1.47;44.58;100417.78;5043683;28;20138;-73
2021/01/28 11:12:09;;;;;;;3.88;1.58;;;;;;;1.62;45.24;100416.78;5047938;28;20098;-72
2021/01/28 11:14:36;;;;;;;4.15;1.42;;;;;;;1.42;45.65;100417.00;5044203;28;20046;-73
2021/01/28 11:17:02;;;;;;;5.57;1.60;;;;;;;1.73;45.26;100411.53;5024270;28;20174;-72
2021/01/28 11:19:28;;;;;;;6.15;2.20;;;;;;;1.65;45.95;100409.03;5024513;28;20053;-72
2021/01/28 11:21:54;;;;;;;7.85;2.30;;;;;;;1.78;45.41;100402.03;5035167;28;20095;-73
2021/01/28 11:24:20;;;;;;;5.18;2.28;;;;;;;1.75;45.53;100394.31;5023925;28;20021;-72
2021/01/28 11:26:46;;;;;;;7.13;3.90;;;;;;;1.79;45.41;100393.41;5023950;28;20510;-72
2021/01/28 11:29:12;;;;;;;5.30;2.78;;;;;;;1.71;45.20;100385.78;5046061;28;20067;-72
2021/01/28 11:31:38;;;;;;;8.60;3.08;;;;;;;1.61;45.10;100385.88;5042977;28;20044;-72
2021/01/28 11:34:05;;;;;;;9.70;3.55;;;;;;;1.79;44.87;100388.25;5038416;28;20078;-73
2021/01/28 11:36:32;;;;;;;16.55;5.95;;;;;;;1.86;44.23;100374.44;5037213;28;20033;-73
2021/01/28 11:38:58;;;;;;;28.85;12.18;;;;;;;2.01;43.72;100380.28;5038396;28;20032;-73
2021/01/28 11:41:25;;;;;;;5.07;2.75;;;;;;;1.62;44.59;100385.88;5043377;28;20033;-72
2021/01/28 11:43:51;;;;;;;5.32;2.67;;;;;;;1.35;45.10;100379.25;5041371;28;20051;-72
2021/01/28 11:46:17;;;;;;;6.15;2.15;;;;;;;1.61;44.76;100385.88;5043615;28;20479;-72
2021/01/28 11:48:45;;;;;;;6.97;3.80;;;;;;;1.83;43.83;100373.63;5039389;28;20962;-73
2021/01/28 11:51:11;;;;;;;3.92;1.70;;;;;;;1.47;44.59;100375.72;5038339;28;20029;-73
2021/01/28 11:53:36;;;;;;;11.98;5.15;;;;;;;1.70;43.95;100368.59;5041936;28;20086;-71
2021/01/28 11:56:02;;;;;;;16.10;9.52;;;;;;;1.77;43.72;100374.53;5042284;28;20029;-72
2021/01/28 11:58:29;;;;;;;9.65;5.20;;;;;;;1.99;44.26;100374.28;5040778;28;20033;-72
2021/01/28 12:00:55;;;;;;;5.78;2.33;;;;;;;2.00;43.63;100370.81;5044308;28;20060;-72
2021/01/28 12:03:20;;;;;;;2.38;0.95;;;;;;;2.07;42.97;100375.06;5041765;28;20125;-72
2021/01/28 12:05:46;;;;;;;2.13;0.63;;;;;;;1.84;42.50;100363.31;5024504;28;20024;-73
2021/01/28 12:08:12;;;;;;;1.95;0.82;;;;;;;1.98;41.96;100363.13;5041713;28;20059;-71
2021/01/28 12:10:37;;;;;;;4.45;2.80;;;;;;;2.24;41.82;100360.22;5043689;28;20036;-72
2021/01/28 12:13:03;;;;;;;3.90;2.03;;;;;;;2.16;41.47;100361.19;5045401;28;20025;-72